createdAt,value
2022-08-25T00:01:40.265Z,14.70
2022-08-25T00:04:10.768Z,15.60
2022-08-25T00:06:38.882Z,14.77
2022-08-25T00:09:07.108Z,14.73
2022-08-25T00:11:35.657Z,14.97
2022-08-25T00:14:06.904Z,14.30
2022-08-25T00:16:35.981Z,15.23
2022-08-25T00:19:06.411Z,15.60
2022-08-25T00:21:33.957Z,15.27
2022-08-25T00:24:03.085Z,16.00
2022-08-25T00:26:31.304Z,15.23
2022-08-25T00:29:01.694Z,14.90
2022-08-25T00:31:37.707Z,15.40
2022-08-25T00:34:10.181Z,15.00
2022-08-25T00:36:38.150Z,14.63
2022-08-25T00:39:06.533Z,14.97
2022-08-25T00:41:35.176Z,15.60
2022-08-25T00:44:04.910Z,15.43
2022-08-25T00:46:38.546Z,15.60
2022-08-25T00:49:20.872Z,14.53
2022-08-25T00:51:55.310Z,14.67
2022-08-25T00:54:27.157Z,14.20
2022-08-25T00:56:55.093Z,14.47
2022-08-25T00:59:23.689Z,14.70
2022-08-25T01:01:52.179Z,13.40
2022-08-25T01:04:22.105Z,13.83
2022-08-25T01:06:50.333Z,13.03
2022-08-25T01:09:18.739Z,14.47
2022-08-25T01:11:47.535Z,14.30
2022-08-25T01:14:18.794Z,14.47
2022-08-25T01:16:46.704Z,14.80
2022-08-25T01:19:19.066Z,15.40
2022-08-25T01:21:49.902Z,15.20
2022-08-25T01:24:23.682Z,14.37
2022-08-25T01:26:51.221Z,13.80
2022-08-25T01:29:26.200Z,14.23
2022-08-25T01:31:57.653Z,14.10
2022-08-25T01:34:26.466Z,14.63
2022-08-25T01:36:57.237Z,14.30
2022-08-25T01:39:25.641Z,14.20
2022-08-25T01:42:09.917Z,14.20
2022-08-25T01:44:40.595Z,15.30
2022-08-25T01:47:08.516Z,15.73
2022-08-25T01:49:36.445Z,16.37
2022-08-25T01:52:11.905Z,16.00
2022-08-25T01:54:39.444Z,14.93
2022-08-25T01:57:07.473Z,15.57
2022-08-25T01:59:35.101Z,16.63
2022-08-25T02:02:03.031Z,15.70
2022-08-25T02:04:32.675Z,16.30
2022-08-25T02:07:02.265Z,17.77
2022-08-25T02:09:31.501Z,15.90
2022-08-25T02:11:59.137Z,16.03
2022-08-25T02:14:28.479Z,15.83
2022-08-25T02:16:57.277Z,16.13
2022-08-25T02:19:25.861Z,15.50
2022-08-25T02:21:53.438Z,16.40
2022-08-25T02:24:21.185Z,15.73
2022-08-25T02:26:50.409Z,15.63
2022-08-25T02:29:18.208Z,16.20
2022-08-25T02:31:45.870Z,15.27
2022-08-25T02:34:15.101Z,15.03
2022-08-25T02:36:43.271Z,15.43
2022-08-25T02:39:11.698Z,15.63
2022-08-25T02:41:39.831Z,15.67
2022-08-25T02:44:09.482Z,15.87
2022-08-25T02:46:38.075Z,15.73
2022-08-25T02:49:06.192Z,16.47
2022-08-25T02:51:34.603Z,15.50
2022-08-25T02:54:04.121Z,16.17
2022-08-25T02:56:32.742Z,16.30
2022-08-25T02:59:01.822Z,15.87
2022-08-25T03:01:32.049Z,16.37
2022-08-25T03:03:59.803Z,16.43
2022-08-25T03:06:27.950Z,17.00
2022-08-25T03:08:55.771Z,17.33
2022-08-25T03:11:24.911Z,16.47
2022-08-25T03:13:52.441Z,16.10
2022-08-25T03:16:20.661Z,16.00
2022-08-25T03:18:50.213Z,16.50
2022-08-25T03:21:18.761Z,15.33
2022-08-25T03:23:46.600Z,15.37
2022-08-25T03:26:31.903Z,15.43
2022-08-25T03:28:59.667Z,15.87
2022-08-25T03:31:28.081Z,14.20
2022-08-25T03:33:57.156Z,14.87
2022-08-25T03:36:25.066Z,15.20
2022-08-25T03:38:52.714Z,14.40
2022-08-25T03:41:23.637Z,14.40
2022-08-25T03:43:53.299Z,15.00
2022-08-25T03:46:23.072Z,14.50
2022-08-25T03:48:50.703Z,15.53
2022-08-25T03:51:24.106Z,15.93
2022-08-25T03:53:53.123Z,15.37
2022-08-25T03:56:21.141Z,14.77
2022-08-25T03:58:49.425Z,15.60
2022-08-25T04:01:18.225Z,15.13
2022-08-25T04:03:46.512Z,15.53
2022-08-25T04:06:15.099Z,15.67
2022-08-25T04:08:44.288Z,18.80
2022-08-25T04:11:14.113Z,17.03
2022-08-25T04:13:42.845Z,17.00
2022-08-25T04:16:14.817Z,16.03
2022-08-25T04:18:42.919Z,16.47
2022-08-25T04:21:11.899Z,15.50
2022-08-25T04:23:41.478Z,15.53
2022-08-25T04:26:11.677Z,15.07
2022-08-25T04:28:39.350Z,16.47
2022-08-25T04:31:09.389Z,16.13
2022-08-25T04:33:38.468Z,16.80
2022-08-25T04:36:12.088Z,15.97
2022-08-25T04:38:40.820Z,16.77
2022-08-25T04:41:09.290Z,18.00
2022-08-25T04:43:39.682Z,16.77
2022-08-25T04:46:08.559Z,17.30
2022-08-25T04:48:36.229Z,18.57
2022-08-25T04:51:06.045Z,17.90
2022-08-25T04:53:34.155Z,19.23
2022-08-25T04:56:03.922Z,19.10
2022-08-25T04:58:31.735Z,18.00
2022-08-25T05:01:04.528Z,18.87
2022-08-25T05:03:32.474Z,17.57
2022-08-25T05:06:00.270Z,18.30
2022-08-25T05:08:28.169Z,18.30
2022-08-25T05:10:56.678Z,17.43
2022-08-25T05:13:24.542Z,16.70
2022-08-25T05:15:55.932Z,16.83
2022-08-25T05:18:28.982Z,16.60
2022-08-25T05:20:57.405Z,16.87
2022-08-25T05:23:26.170Z,17.07
2022-08-25T05:25:53.958Z,15.60
2022-08-25T05:28:22.462Z,15.10
2022-08-25T05:30:50.158Z,14.77
2022-08-25T05:33:18.354Z,15.27
2022-08-25T05:35:47.350Z,15.23
2022-08-25T05:38:15.406Z,16.53
2022-08-25T05:40:43.282Z,16.30
2022-08-25T05:43:10.817Z,15.17
2022-08-25T05:45:39.165Z,16.00
2022-08-25T05:48:06.866Z,15.83
2022-08-25T05:50:34.470Z,16.77
2022-08-25T05:53:03.633Z,17.67
2022-08-25T05:55:31.281Z,16.87
2022-08-25T05:57:59.175Z,17.17
2022-08-25T06:00:26.982Z,16.70
2022-08-25T06:02:55.346Z,16.90
2022-08-25T06:05:23.960Z,17.17
2022-08-25T06:07:52.999Z,17.40
2022-08-25T06:10:22.317Z,16.93
2022-08-25T06:12:50.182Z,17.90
2022-08-25T06:15:19.356Z,17.63
2022-08-25T06:17:48.038Z,18.13
2022-08-25T06:20:17.134Z,18.30
2022-08-25T06:22:44.921Z,18.73
2022-08-25T06:25:14.206Z,18.97
2022-08-25T06:27:43.413Z,18.70
2022-08-25T06:30:14.923Z,18.63
2022-08-25T06:32:44.927Z,18.27
2022-08-25T06:35:14.649Z,17.40
2022-08-25T06:37:42.450Z,17.93
2022-08-25T06:40:11.242Z,17.50
2022-08-25T06:42:39.021Z,17.47
2022-08-25T06:45:10.180Z,18.33
2022-08-25T06:47:37.742Z,17.57
2022-08-25T06:50:08.974Z,17.60
2022-08-25T06:52:39.432Z,18.27
2022-08-25T06:55:07.669Z,17.43
2022-08-25T06:57:35.916Z,18.87
2022-08-25T07:00:05.198Z,17.70
2022-08-25T07:02:38.352Z,18.10
2022-08-25T07:05:08.251Z,18.00
2022-08-25T07:07:52.215Z,18.00
2022-08-25T07:10:19.924Z,18.17
2022-08-25T07:12:47.541Z,18.25
2022-08-25T07:15:20.511Z,17.83
2022-08-25T07:17:51.484Z,17.50
2022-08-25T07:20:19.814Z,17.42
2022-08-25T07:22:48.590Z,17.90
2022-08-25T07:25:17.822Z,17.80
2022-08-25T07:27:45.909Z,18.65
2022-08-25T07:30:14.078Z,17.40
2022-08-25T07:32:42.056Z,18.40
2022-08-25T07:35:19.053Z,18.00
2022-08-25T07:37:51.404Z,17.63
2022-08-25T07:40:21.297Z,17.80
2022-08-25T07:42:50.579Z,18.83
2022-08-25T07:45:21.103Z,19.42
2022-08-25T07:47:51.575Z,19.08
2022-08-25T07:50:21.811Z,19.02
2022-08-25T07:52:52.201Z,19.65
2022-08-25T07:55:22.781Z,19.00
2022-08-25T07:57:55.412Z,19.83
2022-08-25T08:00:27.405Z,19.55
2022-08-25T08:02:55.026Z,19.77
2022-08-25T08:05:24.913Z,19.67
2022-08-25T08:07:52.451Z,19.85
2022-08-25T08:13:08.208Z,19.45
2022-08-25T08:15:35.832Z,20.88
2022-08-25T08:18:05.171Z,21.35
2022-08-25T08:20:42.472Z,20.25
2022-08-25T08:23:11.104Z,21.38
2022-08-25T08:25:38.717Z,21.20
2022-08-25T08:28:06.349Z,21.13
2022-08-25T08:30:36.359Z,21.05
2022-08-25T08:33:12.823Z,21.40
2022-08-25T08:35:42.549Z,21.58
2022-08-25T08:38:17.228Z,20.80
2022-08-25T08:41:13.796Z,21.10
2022-08-25T08:43:43.136Z,21.13
2022-08-25T08:46:12.662Z,20.58
2022-08-25T08:48:52.253Z,21.73
2022-08-25T08:51:24.558Z,22.05
2022-08-25T08:53:57.122Z,22.45
2022-08-25T08:56:30.787Z,21.30
2022-08-25T08:59:05.701Z,20.38
2022-08-25T09:01:36.866Z,21.08
2022-08-25T09:04:10.284Z,21.42
2022-08-25T09:06:44.546Z,21.98
2022-08-25T09:09:14.244Z,21.98
2022-08-25T09:11:52.526Z,21.48
2022-08-25T09:14:31.273Z,21.05
2022-08-25T09:17:02.969Z,22.88
2022-08-25T09:20:18.900Z,21.38
2022-08-25T09:22:53.797Z,21.95
2022-08-25T09:25:48.676Z,22.55
2022-08-25T09:28:20.549Z,21.85
2022-08-25T09:30:54.502Z,20.77
2022-08-25T09:33:24.197Z,21.67
2022-08-25T09:35:53.686Z,21.38
2022-08-25T09:38:25.669Z,21.30
2022-08-25T09:40:56.297Z,21.05
2022-08-25T09:43:31.934Z,20.70
2022-08-25T09:46:02.364Z,21.15
2022-08-25T09:48:39.809Z,22.10
2022-08-25T09:51:19.096Z,21.33
2022-08-25T09:53:52.665Z,21.55
2022-08-25T09:56:21.254Z,21.10
2022-08-25T09:58:49.573Z,21.75
2022-08-25T10:01:19.289Z,21.27
2022-08-25T10:04:01.525Z,21.05
2022-08-25T10:06:32.561Z,21.50
2022-08-25T10:09:05.847Z,20.48
2022-08-25T10:11:38.097Z,20.90
2022-08-25T10:14:09.462Z,21.75
2022-08-25T10:16:37.545Z,21.33
2022-08-25T10:19:09.082Z,21.20
2022-08-25T10:21:38.023Z,20.10
2022-08-25T10:24:07.989Z,21.48
2022-08-25T10:26:48.785Z,21.42
2022-08-25T10:29:29.695Z,21.55
2022-08-25T10:32:10.226Z,21.20
2022-08-25T10:34:45.752Z,20.67
2022-08-25T10:37:27.655Z,21.08
2022-08-25T10:40:11.586Z,20.40
2022-08-25T10:42:42.840Z,20.45
2022-08-25T10:45:40.265Z,20.63
2022-08-25T10:48:27.340Z,19.80
2022-08-25T10:50:57.730Z,20.30
2022-08-25T10:53:36.615Z,20.40
2022-08-25T10:56:09.437Z,19.50
2022-08-25T10:58:51.321Z,19.75
2022-08-25T11:01:34.708Z,19.23
2022-08-25T11:04:09.935Z,19.90
2022-08-25T11:06:43.794Z,20.08
2022-08-25T11:09:15.188Z,19.88
2022-08-25T11:16:16.583Z,20.10
2022-08-25T11:18:49.254Z,19.92
2022-08-25T11:21:22.056Z,19.67
2022-08-25T11:23:55.294Z,19.30
2022-08-25T11:26:31.912Z,20.20
2022-08-25T11:29:04.574Z,20.08
2022-08-25T11:31:39.021Z,18.83
2022-08-25T11:34:09.762Z,20.10
2022-08-25T11:36:40.665Z,20.15
2022-08-25T11:39:16.300Z,20.27
2022-08-25T11:41:54.052Z,19.73
2022-08-25T11:44:39.017Z,19.65
2022-08-25T11:47:44.715Z,20.67
2022-08-25T11:50:30.121Z,20.60
2022-08-25T11:52:59.969Z,20.65
2022-08-25T11:55:33.926Z,20.17
2022-08-25T11:58:27.962Z,20.38
2022-08-25T12:00:59.735Z,20.27
2022-08-25T12:03:54.156Z,19.58
2022-08-25T12:06:29.357Z,20.02
2022-08-25T12:09:19.540Z,19.05
2022-08-25T12:11:54.501Z,19.63
2022-08-25T12:14:47.914Z,21.02
2022-08-25T12:17:22.258Z,20.42
2022-08-25T12:19:58.068Z,19.75
2022-08-25T12:22:56.218Z,19.58
2022-08-25T12:25:36.345Z,20.10
2022-08-25T12:28:10.230Z,19.60
2022-08-25T12:30:45.619Z,19.90
2022-08-25T12:33:19.175Z,19.90
2022-08-25T12:35:56.864Z,19.80
2022-08-25T12:38:31.977Z,19.75
2022-08-25T12:41:03.497Z,19.90
2022-08-25T12:43:33.468Z,19.48
2022-08-25T12:46:34.213Z,19.58
2022-08-25T12:49:03.076Z,19.00
2022-08-25T12:51:54.117Z,19.55
2022-08-25T12:54:26.464Z,19.00
2022-08-25T12:56:58.478Z,20.05
2022-08-25T12:59:34.219Z,19.77
2022-08-25T13:02:33.107Z,18.40
2022-08-25T13:05:06.024Z,18.25
2022-08-25T13:07:55.325Z,18.20
2022-08-25T13:10:46.806Z,19.45
2022-08-25T13:13:20.793Z,18.38
2022-08-25T13:15:59.887Z,19.13
2022-08-25T13:18:29.739Z,18.88
2022-08-25T13:21:04.833Z,19.25
2022-08-25T13:23:36.269Z,19.60
2022-08-25T13:26:08.863Z,19.63
2022-08-25T13:28:40.867Z,18.73
2022-08-25T13:31:15.553Z,18.65
2022-08-25T13:33:56.664Z,19.60
2022-08-25T13:36:52.036Z,20.05
2022-08-25T13:39:45.576Z,19.20
2022-08-25T13:42:18.478Z,19.30
2022-08-25T13:44:52.026Z,18.48
2022-08-25T13:47:43.338Z,18.40
2022-08-25T13:50:23.465Z,18.08
2022-08-25T13:52:56.289Z,17.98
2022-08-25T13:55:27.758Z,18.73
2022-08-25T13:57:58.649Z,18.33
2022-08-25T14:00:32.129Z,18.88
2022-08-25T14:03:12.639Z,18.27
2022-08-25T14:05:44.285Z,18.58
2022-08-25T14:08:31.997Z,18.38
2022-08-25T14:11:14.698Z,18.80
2022-08-25T14:13:44.119Z,19.27
2022-08-25T14:16:15.373Z,19.20
2022-08-25T14:18:52.389Z,19.90
2022-08-25T14:21:30.707Z,19.13
2022-08-25T14:23:59.145Z,19.40
2022-08-25T14:26:36.698Z,19.38
2022-08-25T14:29:23.654Z,19.02
2022-08-25T14:31:57.567Z,18.70
2022-08-25T14:34:29.878Z,20.17
2022-08-25T14:36:59.899Z,19.83
2022-08-25T14:39:28.890Z,19.13
2022-08-25T14:42:06.970Z,19.42
2022-08-25T14:44:36.198Z,19.02
2022-08-25T14:47:03.945Z,18.55
2022-08-25T14:49:37.599Z,18.92
2022-08-25T14:52:09.669Z,19.95
2022-08-25T14:54:37.861Z,17.85
2022-08-25T14:57:10.855Z,19.30
2022-08-25T14:59:40.653Z,19.05
2022-08-25T15:02:13.002Z,19.38
2022-08-25T15:04:48.877Z,19.95
2022-08-25T15:07:30.897Z,19.00
2022-08-25T15:09:59.535Z,18.35
2022-08-25T15:12:46.444Z,18.92
2022-08-25T15:15:14.757Z,18.88
2022-08-25T15:17:44.504Z,19.15
2022-08-25T15:20:12.849Z,20.08
2022-08-25T15:22:43.661Z,19.08
2022-08-25T15:25:11.473Z,19.38
2022-08-25T15:27:40.740Z,18.98
2022-08-25T15:30:10.697Z,19.15
2022-08-25T15:32:40.889Z,18.88
2022-08-25T15:35:16.213Z,18.88
2022-08-25T15:37:44.466Z,19.23
2022-08-25T15:40:13.757Z,18.65
2022-08-25T15:42:45.931Z,18.77
2022-08-25T15:45:14.437Z,18.90
2022-08-25T15:47:42.380Z,19.20
2022-08-25T15:50:15.100Z,18.95
2022-08-25T15:52:47.614Z,19.15
2022-08-25T15:55:19.997Z,18.63
2022-08-25T15:57:56.401Z,18.73
2022-08-25T16:00:27.109Z,18.55
2022-08-25T16:03:01.015Z,19.27
2022-08-25T16:05:32.691Z,19.20
2022-08-25T16:08:04.909Z,18.80
2022-08-25T16:10:36.466Z,18.85
2022-08-25T16:13:07.307Z,19.50
2022-08-25T16:15:40.487Z,19.35
2022-08-25T16:18:10.905Z,18.48
2022-08-25T16:20:38.595Z,18.23
2022-08-25T16:23:07.181Z,19.05
2022-08-25T16:25:40.361Z,19.17
2022-08-25T16:28:13.974Z,19.20
2022-08-25T16:30:52.798Z,19.90
2022-08-25T16:33:21.489Z,19.20
2022-08-25T16:35:50.621Z,18.55
2022-08-25T16:38:20.605Z,19.50
2022-08-25T16:40:48.427Z,18.83
2022-08-25T16:43:17.619Z,18.60
2022-08-25T16:45:48.629Z,18.75
2022-08-25T16:48:19.042Z,17.98
2022-08-25T16:50:47.588Z,19.15
2022-08-25T16:53:35.133Z,19.13
2022-08-25T16:56:03.179Z,19.45
2022-08-25T16:58:33.163Z,19.48
2022-08-25T17:01:06.213Z,19.48
2022-08-25T17:03:37.178Z,19.38
2022-08-25T17:06:04.962Z,18.42
2022-08-25T17:08:33.186Z,19.20
2022-08-25T17:11:07.699Z,19.70
2022-08-25T17:13:36.998Z,20.02
2022-08-25T17:16:08.960Z,19.65
2022-08-25T17:18:37.490Z,19.45
2022-08-25T17:21:06.971Z,20.90
2022-08-25T17:23:35.884Z,20.65
2022-08-25T17:26:04.441Z,21.15
2022-08-25T17:28:34.509Z,21.13
2022-08-25T17:31:14.202Z,20.65
2022-08-25T17:33:42.343Z,20.80
2022-08-25T17:36:18.204Z,20.15
2022-08-25T17:38:45.853Z,20.63
2022-08-25T17:41:14.536Z,20.05
2022-08-25T17:43:43.344Z,20.48
2022-08-25T17:46:14.691Z,19.60
2022-08-25T17:48:46.657Z,19.25
2022-08-25T17:51:15.830Z,20.40
2022-08-25T17:53:44.374Z,20.45
2022-08-25T17:56:14.597Z,20.20
2022-08-25T17:58:43.053Z,19.63
2022-08-25T18:01:18.178Z,20.50
2022-08-25T18:03:46.550Z,20.77
2022-08-25T18:06:15.207Z,21.52
2022-08-25T18:08:52.194Z,19.92
2022-08-25T18:11:24.385Z,20.10
2022-08-25T18:13:53.594Z,20.80
2022-08-25T18:16:23.775Z,20.92
2022-08-25T18:18:53.166Z,21.23
2022-08-25T18:21:22.383Z,20.52
2022-08-25T18:23:50.395Z,21.73
2022-08-25T18:26:24.668Z,21.42
2022-08-25T18:28:53.626Z,21.02
2022-08-25T18:31:22.719Z,21.43
2022-08-25T18:33:52.260Z,21.60
2022-08-25T18:36:20.297Z,20.83
2022-08-25T18:39:06.592Z,21.87
2022-08-25T18:41:36.503Z,21.37
2022-08-25T18:44:04.409Z,21.27
2022-08-25T18:46:33.344Z,20.07
2022-08-25T18:49:01.443Z,21.20
2022-08-25T18:51:29.117Z,20.97
2022-08-25T18:54:01.382Z,22.47
2022-08-25T18:56:29.289Z,22.43
2022-08-25T18:58:56.990Z,22.20
2022-08-25T19:01:24.768Z,21.23
2022-08-25T19:03:53.837Z,22.37
2022-08-25T19:06:21.985Z,22.50
2022-08-25T19:08:49.597Z,22.73
2022-08-25T19:11:22.041Z,22.63
2022-08-25T19:13:50.406Z,21.23
2022-08-25T19:16:20.612Z,23.07
2022-08-25T19:18:52.126Z,22.87
2022-08-25T19:21:23.670Z,22.57
2022-08-25T19:23:51.366Z,24.00
2022-08-25T19:26:20.262Z,22.50
2022-08-25T19:28:49.834Z,23.43
2022-08-25T19:31:18.352Z,22.53
2022-08-25T19:33:46.289Z,21.80
2022-08-25T19:36:14.574Z,22.73
2022-08-25T19:38:44.645Z,21.83
2022-08-25T19:41:14.824Z,22.37
2022-08-25T19:43:56.646Z,23.83
2022-08-25T19:46:25.805Z,21.70
2022-08-25T19:49:06.946Z,22.70
2022-08-25T19:51:35.682Z,22.43
2022-08-25T19:54:04.913Z,22.33
2022-08-25T19:56:34.981Z,21.70
2022-08-25T19:59:04.778Z,22.33
2022-08-25T20:01:33.014Z,22.50
2022-08-25T20:04:03.373Z,22.23
2022-08-25T20:06:32.048Z,21.47
2022-08-25T20:09:00.593Z,21.80
2022-08-25T20:11:32.255Z,22.87
2022-08-25T20:14:03.828Z,23.23
2022-08-25T20:16:31.848Z,22.03
2022-08-25T20:18:59.962Z,22.43
2022-08-25T20:21:28.592Z,21.57
2022-08-25T20:24:16.351Z,21.80
2022-08-25T20:26:45.294Z,21.63
2022-08-25T20:29:13.799Z,23.30
2022-08-25T20:31:43.826Z,22.17
2022-08-25T20:34:12.212Z,22.60
2022-08-25T20:36:50.254Z,22.90
2022-08-25T20:39:20.110Z,22.97
2022-08-25T20:41:49.219Z,22.83
2022-08-25T20:44:17.685Z,23.40
2022-08-25T20:46:45.217Z,22.10
2022-08-25T20:49:13.541Z,22.80
2022-08-25T20:51:41.242Z,23.30
2022-08-25T20:54:12.498Z,22.73
2022-08-25T20:56:40.277Z,23.67
2022-08-25T20:59:10.494Z,23.27
2022-08-25T21:01:40.202Z,23.80
2022-08-25T21:04:09.270Z,23.50
2022-08-25T21:06:37.297Z,23.43
2022-08-25T21:09:06.168Z,24.07
2022-08-25T21:11:41.218Z,23.43
2022-08-25T21:14:15.404Z,23.17
2022-08-25T21:16:46.485Z,23.83
2022-08-25T21:19:16.089Z,23.80
2022-08-25T21:21:43.650Z,22.77
2022-08-25T21:24:11.646Z,24.23
2022-08-25T21:26:48.691Z,23.80
2022-08-25T21:29:19.153Z,22.67
2022-08-25T21:31:47.166Z,22.90
2022-08-25T21:34:18.030Z,24.23
2022-08-25T21:36:46.500Z,23.53
2022-08-25T21:39:14.844Z,23.17
2022-08-25T21:41:44.573Z,23.10
2022-08-25T21:44:13.850Z,23.67
2022-08-25T21:46:53.844Z,24.57
2022-08-25T21:49:23.227Z,27.07
2022-08-25T21:52:00.084Z,25.03
2022-08-25T21:54:29.401Z,24.80
2022-08-25T21:57:00.688Z,24.40
2022-08-25T21:59:30.197Z,24.23
2022-08-25T22:02:00.820Z,23.40
2022-08-25T22:04:29.050Z,22.97
2022-08-25T22:06:58.389Z,25.83
2022-08-25T22:09:27.498Z,21.97
2022-08-25T22:11:56.066Z,23.63
2022-08-25T22:14:24.479Z,22.73
2022-08-25T22:16:54.141Z,23.97
2022-08-25T22:19:23.872Z,23.00
2022-08-25T22:21:53.568Z,23.97
2022-08-25T22:24:21.433Z,25.17
2022-08-25T22:26:49.438Z,25.47
2022-08-25T22:29:24.923Z,24.13
2022-08-25T22:31:53.378Z,22.53
2022-08-25T22:34:30.754Z,24.47
2022-08-25T22:37:01.600Z,24.47
2022-08-25T22:39:30.137Z,23.37
2022-08-25T22:41:57.643Z,24.13
2022-08-25T22:44:26.383Z,23.47
2022-08-25T22:46:54.369Z,24.57
2022-08-25T22:49:22.196Z,24.37
2022-08-25T22:51:49.870Z,23.90
2022-08-25T22:54:19.761Z,24.53
2022-08-25T22:56:47.289Z,24.47
2022-08-25T22:59:15.462Z,24.40
2022-08-25T23:01:45.158Z,23.07
2022-08-25T23:04:14.462Z,24.97
2022-08-25T23:06:42.445Z,27.17
2022-08-25T23:09:10.708Z,25.43
2022-08-25T23:11:40.486Z,25.77
2022-08-25T23:14:10.907Z,25.57
2022-08-25T23:16:38.858Z,23.60
2022-08-25T23:19:06.445Z,24.63
2022-08-25T23:21:52.585Z,24.87
2022-08-25T23:24:29.291Z,24.13
2022-08-25T23:27:00.620Z,23.80
2022-08-25T23:29:28.675Z,23.93
2022-08-25T23:31:56.587Z,27.00
2022-08-25T23:34:24.587Z,24.53
2022-08-25T23:36:52.691Z,25.37
2022-08-25T23:39:21.866Z,26.30
2022-08-25T23:41:49.884Z,25.00
2022-08-25T23:44:19.019Z,28.47
2022-08-25T23:46:47.153Z,23.97
2022-08-25T23:49:18.371Z,24.53
2022-08-25T23:51:47.356Z,27.20
2022-08-25T23:54:16.241Z,27.13
2022-08-25T23:56:52.335Z,25.27
2022-08-25T23:59:23.953Z,26.97
